createdAt,value
2018-06-21T00:00:39.832Z,22.50
2018-06-21T00:01:39.898Z,45.00
2018-06-21T00:02:39.897Z,45.00
2018-06-21T00:03:39.896Z,22.50
2018-06-21T00:04:39.899Z,45.00
2018-06-21T00:05:39.884Z,22.50
2018-06-21T00:06:39.816Z,45.00
2018-06-21T00:07:39.826Z,90.00
2018-06-21T00:08:39.803Z,67.50
2018-06-21T00:09:39.819Z,45.00
2018-06-21T00:10:39.824Z,90.00
2018-06-21T00:11:39.897Z,45.00
2018-06-21T00:12:39.774Z,45.00
2018-06-21T00:13:39.830Z,45.00
2018-06-21T00:14:39.776Z,45.00
2018-06-21T00:15:39.850Z,45.00
2018-06-21T00:16:39.944Z,45.00
2018-06-21T00:17:39.907Z,22.50
2018-06-21T00:18:40.009Z,22.50
2018-06-21T00:19:39.833Z,22.50
2018-06-21T00:26:55.876Z,22.50
2018-06-21T00:27:39.902Z,45.00
2018-06-21T00:32:39.878Z,202.50
2018-06-21T00:33:39.891Z,135.00
2018-06-21T00:34:39.915Z,202.50
2018-06-21T00:35:39.837Z,247.50
2018-06-21T00:36:39.913Z,0.00
2018-06-21T00:37:39.875Z,67.50
2018-06-21T00:38:39.793Z,22.50
2018-06-21T00:39:39.862Z,45.00
2018-06-21T00:40:39.918Z,67.50
2018-06-21T00:41:39.841Z,90.00
2018-06-21T00:42:39.880Z,112.50
2018-06-21T00:43:39.878Z,112.50
2018-06-21T00:44:39.918Z,135.00
2018-06-21T00:45:39.926Z,157.50
2018-06-21T00:46:39.854Z,157.50
2018-06-21T00:47:39.827Z,157.50
2018-06-21T00:48:39.927Z,90.00
2018-06-21T00:49:39.927Z,45.00
2018-06-21T00:50:39.929Z,135.00
2018-06-21T00:51:39.861Z,337.50
2018-06-21T00:52:39.862Z,45.00
2018-06-21T00:53:39.933Z,22.50
2018-06-21T00:54:39.933Z,112.50
2018-06-21T00:55:39.892Z,22.50
2018-06-21T00:56:39.936Z,45.00
2018-06-21T00:57:39.869Z,22.50
2018-06-21T00:58:39.881Z,45.00
2018-06-21T00:59:39.967Z,22.50
2018-06-21T01:00:39.833Z,22.50
2018-06-21T01:01:39.878Z,22.50
2018-06-21T01:02:39.909Z,22.50
2018-06-21T01:03:39.937Z,22.50
2018-06-21T01:04:39.938Z,22.50
2018-06-21T01:05:39.929Z,22.50
2018-06-21T01:06:39.936Z,45.00
2018-06-21T01:07:39.858Z,45.00
2018-06-21T01:08:39.877Z,22.50
2018-06-21T01:09:39.937Z,45.00
2018-06-21T01:10:39.865Z,45.00
2018-06-21T01:11:39.847Z,22.50
2018-06-21T01:12:39.932Z,22.50
2018-06-21T01:13:39.884Z,22.50
2018-06-21T01:14:39.938Z,45.00
2018-06-21T01:15:39.910Z,45.00
2018-06-21T01:16:39.907Z,45.00
2018-06-21T01:17:39.912Z,45.00
2018-06-21T01:18:39.911Z,45.00
2018-06-21T01:19:39.970Z,45.00
2018-06-21T01:20:39.953Z,67.50
2018-06-21T01:21:39.908Z,90.00
2018-06-21T01:22:39.850Z,112.50
2018-06-21T01:23:39.978Z,112.50
2018-06-21T01:24:39.974Z,112.50
2018-06-21T01:25:39.968Z,112.50
2018-06-21T01:26:39.929Z,112.50
2018-06-21T01:27:39.860Z,112.50
2018-06-21T01:28:39.971Z,112.50
2018-06-21T01:29:39.855Z,112.50
2018-06-21T01:30:39.857Z,112.50
2018-06-21T01:31:39.862Z,112.50
2018-06-21T01:32:39.989Z,90.00
2018-06-21T01:33:39.997Z,90.00
2018-06-21T01:34:39.867Z,90.00
2018-06-21T01:35:39.988Z,90.00
2018-06-21T01:36:39.996Z,112.50
2018-06-21T01:37:39.898Z,90.00
2018-06-21T01:38:39.984Z,90.00
2018-06-21T01:39:39.864Z,67.50
2018-06-21T01:40:39.978Z,67.50
2018-06-21T01:41:39.960Z,45.00
2018-06-21T01:42:40.004Z,22.50
2018-06-21T01:43:39.871Z,45.00
2018-06-21T01:44:40.040Z,45.00
2018-06-21T01:45:39.992Z,90.00
2018-06-21T01:46:39.864Z,157.50
2018-06-21T01:47:39.867Z,157.50
2018-06-21T01:48:39.968Z,157.50
2018-06-21T01:49:39.938Z,180.00
2018-06-21T01:50:40.005Z,90.00
2018-06-21T01:51:39.925Z,67.50
2018-06-21T01:52:39.942Z,45.00
2018-06-21T01:53:39.968Z,45.00
2018-06-21T01:54:39.953Z,22.50
2018-06-21T01:55:39.950Z,112.50
2018-06-21T01:56:39.936Z,45.00
2018-06-21T01:57:39.975Z,157.50
2018-06-21T01:58:40.020Z,135.00
2018-06-21T01:59:40.033Z,90.00
2018-06-21T02:00:39.947Z,157.50
2018-06-21T02:01:39.918Z,67.50
2018-06-21T02:02:39.948Z,135.00
2018-06-21T02:03:39.917Z,22.50
2018-06-21T02:04:39.896Z,22.50
2018-06-21T02:05:39.978Z,45.00
2018-06-21T02:06:39.917Z,90.00
2018-06-21T02:07:39.911Z,90.00
2018-06-21T02:08:39.984Z,90.00
2018-06-21T02:09:39.918Z,90.00
2018-06-21T02:10:39.982Z,45.00
2018-06-21T02:11:39.917Z,22.50
2018-06-21T02:12:39.913Z,45.00
2018-06-21T02:13:39.989Z,90.00
2018-06-21T02:14:39.919Z,45.00
2018-06-21T02:15:39.950Z,22.50
2018-06-21T02:16:39.913Z,202.50
2018-06-21T02:17:39.910Z,270.00
2018-06-21T02:18:39.948Z,315.00
2018-06-21T02:19:40.015Z,157.50
2018-06-21T02:20:39.945Z,225.00
2018-06-21T02:21:39.986Z,157.50
2018-06-21T02:22:39.931Z,67.50
2018-06-21T02:23:39.954Z,22.50
2018-06-21T02:24:39.893Z,45.00
2018-06-21T02:25:39.986Z,67.50
2018-06-21T02:26:39.982Z,45.00
2018-06-21T02:27:39.919Z,45.00
2018-06-21T02:28:39.934Z,45.00
2018-06-21T02:29:39.899Z,45.00
2018-06-21T02:30:39.991Z,45.00
2018-06-21T02:31:39.901Z,67.50
2018-06-21T02:32:39.995Z,67.50
2018-06-21T02:33:39.992Z,22.50
2018-06-21T02:34:39.990Z,22.50
2018-06-21T02:35:39.995Z,22.50
2018-06-21T02:36:39.997Z,67.50
2018-06-21T02:37:40.011Z,67.50
2018-06-21T02:38:40.022Z,45.00
2018-06-21T02:39:40.031Z,22.50
2018-06-21T02:40:40.000Z,112.50
2018-06-21T02:41:40.034Z,22.50
2018-06-21T02:42:39.967Z,22.50
2018-06-21T02:43:40.027Z,22.50
2018-06-21T02:44:39.974Z,22.50
2018-06-21T02:45:40.027Z,22.50
2018-06-21T02:46:39.934Z,67.50
2018-06-21T02:47:39.899Z,45.00
2018-06-21T02:48:39.873Z,292.50
2018-06-21T02:49:39.934Z,247.50
2018-06-21T02:50:39.935Z,202.50
2018-06-21T02:51:39.929Z,247.50
2018-06-21T02:52:40.005Z,22.50
2018-06-21T02:53:39.904Z,67.50
2018-06-21T02:54:39.971Z,67.50
2018-06-21T02:55:39.904Z,112.50
2018-06-21T02:56:40.016Z,112.50
2018-06-21T02:57:39.963Z,67.50
2018-06-21T02:58:39.985Z,22.50
2018-06-21T02:59:40.057Z,112.50
2018-06-21T03:00:39.918Z,135.00
2018-06-21T03:01:40.013Z,112.50
2018-06-21T03:02:39.936Z,67.50
2018-06-21T03:03:39.924Z,67.50
2018-06-21T03:04:40.020Z,67.50
2018-06-21T03:05:39.956Z,67.50
2018-06-21T03:06:40.018Z,45.00
2018-06-21T03:07:40.046Z,90.00
2018-06-21T03:08:39.992Z,45.00
2018-06-21T03:09:40.051Z,45.00
2018-06-21T03:10:40.048Z,45.00
2018-06-21T03:11:39.924Z,90.00
2018-06-21T03:12:40.060Z,112.50
2018-06-21T03:13:40.045Z,90.00
2018-06-21T03:14:40.002Z,90.00
2018-06-21T03:15:39.994Z,90.00
2018-06-21T03:16:39.957Z,90.00
2018-06-21T03:17:39.963Z,112.50
2018-06-21T03:18:40.027Z,112.50
2018-06-21T03:19:39.968Z,135.00
2018-06-21T03:20:40.031Z,112.50
2018-06-21T03:21:39.984Z,112.50
2018-06-21T03:22:40.029Z,67.50
2018-06-21T03:23:40.028Z,90.00
2018-06-21T03:24:40.029Z,67.50
2018-06-21T03:25:40.027Z,45.00
2018-06-21T03:26:39.934Z,45.00
2018-06-21T03:27:40.050Z,67.50
2018-06-21T03:28:39.967Z,45.00
2018-06-21T03:29:40.030Z,45.00
2018-06-21T03:30:40.030Z,45.00
2018-06-21T03:31:39.971Z,67.50
2018-06-21T03:32:39.958Z,67.50
2018-06-21T03:33:39.927Z,112.50
2018-06-21T03:34:39.944Z,112.50
2018-06-21T03:35:39.993Z,112.50
2018-06-21T03:36:39.972Z,112.50
2018-06-21T03:37:40.040Z,112.50
2018-06-21T03:38:39.975Z,112.50
2018-06-21T03:39:40.005Z,112.50
2018-06-21T03:40:39.976Z,135.00
2018-06-21T03:41:39.976Z,157.50
2018-06-21T03:42:40.046Z,157.50
2018-06-21T03:43:40.051Z,180.00
2018-06-21T03:44:39.973Z,180.00
2018-06-21T03:45:40.045Z,157.50
2018-06-21T03:46:39.989Z,90.00
2018-06-21T03:47:39.897Z,45.00
2018-06-21T03:48:39.897Z,22.50
2018-06-21T03:49:39.997Z,135.00
2018-06-21T03:50:39.898Z,225.00
2018-06-21T03:51:39.995Z,22.50
2018-06-21T03:52:39.994Z,45.00
2018-06-21T03:53:39.946Z,45.00
2018-06-21T03:54:39.901Z,45.00
2018-06-21T03:55:39.991Z,45.00
2018-06-21T03:56:39.920Z,67.50
2018-06-21T03:57:40.004Z,90.00
2018-06-21T03:58:39.955Z,90.00
2018-06-21T03:59:39.925Z,135.00
2018-06-21T04:00:40.007Z,90.00
2018-06-21T04:01:39.964Z,135.00
2018-06-21T04:02:39.923Z,22.50
2018-06-21T04:03:40.071Z,112.50
2018-06-21T04:04:39.958Z,90.00
2018-06-21T04:05:39.988Z,22.50
2018-06-21T04:06:40.029Z,45.00
2018-06-21T04:07:40.035Z,90.00
2018-06-21T04:08:40.094Z,247.50
2018-06-21T04:09:40.061Z,45.00
2018-06-21T04:10:39.964Z,90.00
2018-06-21T04:11:40.019Z,45.00
2018-06-21T04:12:40.037Z,202.50
2018-06-21T04:13:40.036Z,22.50
2018-06-21T04:14:40.025Z,22.50
2018-06-21T04:15:40.066Z,67.50
2018-06-21T04:16:40.028Z,67.50
2018-06-21T04:17:40.005Z,67.50
2018-06-21T04:18:40.081Z,22.50
2018-06-21T04:19:40.101Z,67.50
2018-06-21T04:20:40.000Z,22.50
2018-06-21T04:21:40.067Z,45.00
2018-06-21T04:22:40.000Z,67.50
2018-06-21T04:23:40.068Z,45.00
2018-06-21T04:24:40.032Z,90.00
2018-06-21T04:25:40.005Z,45.00
2018-06-21T04:26:40.055Z,157.50
2018-06-21T04:27:40.096Z,45.00
2018-06-21T04:28:39.994Z,112.50
2018-06-21T04:29:40.112Z,67.50
2018-06-21T04:30:39.975Z,292.50
2018-06-21T04:31:40.077Z,292.50
2018-06-21T04:32:40.055Z,225.00
2018-06-21T04:33:39.980Z,270.00
2018-06-21T04:34:39.983Z,202.50
2018-06-21T04:35:40.044Z,157.50
2018-06-21T04:36:39.985Z,90.00
2018-06-21T04:37:39.998Z,292.50
2018-06-21T04:38:40.082Z,225.00
2018-06-21T04:39:40.098Z,67.50
2018-06-21T04:40:40.079Z,45.00
2018-06-21T04:41:39.999Z,135.00
2018-06-21T04:42:40.104Z,45.00
2018-06-21T04:43:40.122Z,45.00
2018-06-21T04:44:40.085Z,135.00
2018-06-21T04:45:40.082Z,270.00
2018-06-21T04:46:40.074Z,225.00
2018-06-21T04:47:39.957Z,292.50
2018-06-21T04:48:40.077Z,202.50
2018-06-21T04:49:40.080Z,112.50
2018-06-21T04:50:39.992Z,157.50
2018-06-21T04:51:39.988Z,202.50
2018-06-21T04:52:40.036Z,180.00
2018-06-21T04:53:40.235Z,315.00
2018-06-21T04:54:40.085Z,315.00
2018-06-21T04:55:39.998Z,247.50
2018-06-21T04:56:40.092Z,225.00
2018-06-21T04:57:40.029Z,112.50
2018-06-21T04:58:40.025Z,180.00
2018-06-21T04:59:40.092Z,270.00
2018-06-21T05:00:40.032Z,315.00
2018-06-21T05:01:40.032Z,315.00
2018-06-21T05:02:40.030Z,315.00
2018-06-21T05:03:40.035Z,315.00
2018-06-21T05:04:40.096Z,22.50
2018-06-21T05:05:40.100Z,157.50
2018-06-21T05:06:40.113Z,90.00
2018-06-21T05:07:40.065Z,90.00
2018-06-21T05:08:40.054Z,67.50
2018-06-21T05:09:40.055Z,90.00
2018-06-21T05:10:40.073Z,135.00
2018-06-21T05:11:40.098Z,67.50
2018-06-21T05:12:40.065Z,67.50
2018-06-21T05:13:40.081Z,90.00
2018-06-21T05:14:40.104Z,90.00
2018-06-21T05:15:40.137Z,157.50
2018-06-21T05:16:40.055Z,157.50
2018-06-21T05:17:40.013Z,135.00
2018-06-21T05:18:40.100Z,157.50
2018-06-21T05:19:40.008Z,157.50
2018-06-21T05:20:40.015Z,157.50
2018-06-21T05:21:40.101Z,157.50
2018-06-21T05:22:40.110Z,90.00
2018-06-21T05:23:39.978Z,90.00
2018-06-21T05:24:40.119Z,135.00
2018-06-21T05:25:40.111Z,67.50
2018-06-21T05:26:40.141Z,135.00
2018-06-21T05:27:40.073Z,157.50
2018-06-21T05:28:40.111Z,157.50
2018-06-21T05:29:40.017Z,157.50
2018-06-21T05:30:40.033Z,157.50
2018-06-21T05:31:40.118Z,135.00
2018-06-21T05:32:40.014Z,90.00
2018-06-21T05:33:40.148Z,112.50
2018-06-21T05:34:40.088Z,135.00
2018-06-21T05:35:40.039Z,135.00
2018-06-21T05:36:40.039Z,112.50
2018-06-21T05:37:40.032Z,112.50
2018-06-21T05:38:40.028Z,112.50
2018-06-21T05:39:39.991Z,157.50
2018-06-21T05:40:40.027Z,157.50
2018-06-21T05:41:40.010Z,112.50
2018-06-21T05:42:40.058Z,90.00
2018-06-21T05:43:40.012Z,90.00
2018-06-21T05:44:40.107Z,90.00
2018-06-21T05:45:39.998Z,112.50
2018-06-21T05:46:40.059Z,112.50
2018-06-21T05:47:40.063Z,90.00
2018-06-21T05:48:40.016Z,67.50
2018-06-21T05:49:40.130Z,90.00
2018-06-21T05:50:40.126Z,90.00
2018-06-21T05:51:40.059Z,90.00
2018-06-21T05:52:40.101Z,90.00
2018-06-21T05:53:40.137Z,90.00
2018-06-21T05:54:40.013Z,90.00
2018-06-21T05:55:40.069Z,67.50
2018-06-21T05:56:40.165Z,90.00
2018-06-21T05:57:40.074Z,135.00
2018-06-21T05:58:40.064Z,90.00
2018-06-21T05:59:40.066Z,90.00
2018-06-21T06:00:40.072Z,90.00
2018-06-21T06:01:40.132Z,112.50
2018-06-21T06:02:40.069Z,90.00
2018-06-21T06:03:40.174Z,90.00
2018-06-21T06:04:40.133Z,90.00
2018-06-21T06:05:40.201Z,90.00
2018-06-21T06:06:40.098Z,112.50
2018-06-21T06:07:40.098Z,112.50
2018-06-21T06:08:40.036Z,67.50
2018-06-21T06:09:40.070Z,90.00
2018-06-21T06:10:40.034Z,112.50
2018-06-21T06:11:40.073Z,112.50
2018-06-21T06:12:40.126Z,90.00
2018-06-21T06:13:40.126Z,135.00
2018-06-21T06:14:40.104Z,112.50
2018-06-21T06:15:40.045Z,112.50
2018-06-21T06:16:40.142Z,90.00
2018-06-21T06:17:40.081Z,90.00
2018-06-21T06:18:40.195Z,112.50
2018-06-21T06:19:40.140Z,90.00
2018-06-21T06:20:40.150Z,112.50
2018-06-21T06:21:40.077Z,112.50
2018-06-21T06:22:40.151Z,112.50
2018-06-21T06:23:40.082Z,112.50
2018-06-21T06:24:40.086Z,90.00
2018-06-21T06:25:40.154Z,112.50
2018-06-21T06:26:40.154Z,90.00
2018-06-21T06:27:40.082Z,112.50
2018-06-21T06:28:40.175Z,112.50
2018-06-21T06:29:40.155Z,112.50
2018-06-21T06:30:40.152Z,225.00
2018-06-21T06:31:40.085Z,112.50
2018-06-21T06:32:40.091Z,135.00
2018-06-21T06:33:40.157Z,90.00
2018-06-21T06:34:40.179Z,90.00
2018-06-21T06:35:40.090Z,67.50
2018-06-21T06:36:40.155Z,90.00
2018-06-21T06:37:40.091Z,90.00
2018-06-21T06:38:40.109Z,90.00
2018-06-21T06:39:40.099Z,157.50
2018-06-21T06:40:40.094Z,157.50
2018-06-21T06:41:40.131Z,202.50
2018-06-21T06:42:40.161Z,202.50
2018-06-21T06:43:40.135Z,202.50
2018-06-21T06:44:40.093Z,225.00
2018-06-21T06:45:40.097Z,202.50
2018-06-21T06:46:40.123Z,135.00
2018-06-21T06:47:40.070Z,112.50
2018-06-21T06:48:40.142Z,135.00
2018-06-21T06:49:40.135Z,135.00
2018-06-21T06:50:40.169Z,157.50
2018-06-21T06:51:40.105Z,157.50
2018-06-21T06:52:40.087Z,225.00
2018-06-21T06:53:40.193Z,112.50
2018-06-21T06:54:40.252Z,157.50
2018-06-21T06:55:40.201Z,180.00
2018-06-21T06:56:40.037Z,112.50
2018-06-21T06:57:40.165Z,90.00
2018-06-21T06:58:40.167Z,112.50
2018-06-21T06:59:40.077Z,112.50
2018-06-21T07:00:40.078Z,157.50
2018-06-21T07:01:40.164Z,202.50
2018-06-21T07:02:40.052Z,180.00
2018-06-21T07:03:40.177Z,135.00
2018-06-21T07:04:40.083Z,135.00
2018-06-21T07:05:40.061Z,180.00
2018-06-21T07:06:40.153Z,180.00
2018-06-21T07:07:40.205Z,180.00
2018-06-21T07:08:40.157Z,180.00
2018-06-21T07:09:40.178Z,135.00
2018-06-21T07:10:40.146Z,90.00
2018-06-21T07:11:40.149Z,202.50
2018-06-21T07:12:40.151Z,202.50
2018-06-21T07:13:40.146Z,270.00
2018-06-21T07:14:40.202Z,270.00
2018-06-21T07:15:40.162Z,135.00
2018-06-21T07:16:40.146Z,270.00
2018-06-21T07:17:40.215Z,247.50
2018-06-21T07:18:40.156Z,225.00
2018-06-21T07:19:40.139Z,225.00
2018-06-21T07:20:40.106Z,270.00
2018-06-21T07:21:40.190Z,270.00
2018-06-21T07:22:40.156Z,270.00
2018-06-21T07:23:40.161Z,247.50
2018-06-21T07:24:40.215Z,247.50
2018-06-21T07:25:40.196Z,247.50
2018-06-21T07:26:40.076Z,270.00
2018-06-21T07:27:40.056Z,247.50
2018-06-21T07:28:40.127Z,225.00
2018-06-21T07:29:40.092Z,225.00
2018-06-21T07:30:40.125Z,247.50
2018-06-21T07:31:40.115Z,225.00
2018-06-21T07:32:40.082Z,225.00
2018-06-21T07:33:40.142Z,247.50
2018-06-21T07:34:40.066Z,225.00
2018-06-21T07:35:40.128Z,225.00
2018-06-21T07:36:40.132Z,202.50
2018-06-21T07:37:40.195Z,247.50
2018-06-21T07:38:40.135Z,180.00
2018-06-21T07:39:40.201Z,225.00
2018-06-21T07:40:40.198Z,247.50
2018-06-21T07:41:40.141Z,202.50
2018-06-21T07:42:40.133Z,247.50
2018-06-21T07:43:40.134Z,247.50
2018-06-21T07:44:40.140Z,180.00
2018-06-21T07:45:40.203Z,270.00
2018-06-21T07:46:40.230Z,247.50
2018-06-21T07:47:40.170Z,247.50
2018-06-21T07:48:40.226Z,270.00
2018-06-21T07:50:40.241Z,270.00
2018-06-21T07:51:40.238Z,247.50
2018-06-21T07:52:40.177Z,247.50
2018-06-21T07:53:40.177Z,202.50
2018-06-21T07:54:40.116Z,270.00
2018-06-21T07:55:40.204Z,270.00
2018-06-21T07:56:40.079Z,225.00
2018-06-21T07:57:40.079Z,247.50
2018-06-21T07:58:40.138Z,270.00
2018-06-21T07:59:40.146Z,247.50
2018-06-21T08:00:40.110Z,225.00
2018-06-21T08:01:40.147Z,270.00
2018-06-21T08:02:40.190Z,247.50
2018-06-21T08:03:40.136Z,247.50
2018-06-21T08:04:40.199Z,270.00
2018-06-21T08:05:40.202Z,270.00
2018-06-21T08:06:40.152Z,292.50
2018-06-21T08:07:40.121Z,270.00
2018-06-21T08:08:40.207Z,270.00
2018-06-21T08:09:40.156Z,225.00
2018-06-21T08:10:40.213Z,247.50
2018-06-21T08:11:40.175Z,247.50
2018-06-21T08:12:40.157Z,270.00
2018-06-21T08:13:40.204Z,247.50
2018-06-21T08:14:40.212Z,202.50
2018-06-21T08:15:40.209Z,247.50
2018-06-21T08:16:40.195Z,202.50
2018-06-21T08:17:40.228Z,202.50
2018-06-21T08:18:40.251Z,270.00
2018-06-21T08:19:40.257Z,202.50
2018-06-21T08:20:40.260Z,247.50
2018-06-21T08:21:40.135Z,225.00
2018-06-21T08:22:40.132Z,225.00
2018-06-21T08:23:40.265Z,225.00
2018-06-21T08:24:40.205Z,247.50
2018-06-21T08:25:40.226Z,270.00
2018-06-21T08:26:40.248Z,247.50
2018-06-21T08:27:40.169Z,225.00
2018-06-21T08:28:40.233Z,247.50
2018-06-21T08:29:40.234Z,270.00
2018-06-21T08:30:40.237Z,270.00
2018-06-21T08:31:40.165Z,247.50
2018-06-21T08:32:40.165Z,247.50
2018-06-21T08:33:40.167Z,247.50
2018-06-21T08:34:40.173Z,247.50
2018-06-21T08:35:40.240Z,270.00
2018-06-21T08:36:40.140Z,270.00
2018-06-21T08:37:40.117Z,270.00
2018-06-21T08:38:40.188Z,270.00
2018-06-21T08:39:40.137Z,270.00
2018-06-21T08:40:40.180Z,270.00
2018-06-21T08:41:40.097Z,270.00
2018-06-21T08:42:40.138Z,270.00
2018-06-21T08:43:40.187Z,270.00
2018-06-21T08:44:40.144Z,292.50
2018-06-21T08:45:40.213Z,292.50
2018-06-21T08:46:40.234Z,292.50
2018-06-21T08:47:40.178Z,292.50
2018-06-21T08:48:40.202Z,270.00
2018-06-21T08:49:40.246Z,270.00
2018-06-21T08:50:40.238Z,270.00
2018-06-21T08:51:40.182Z,270.00
2018-06-21T08:52:40.248Z,270.00
2018-06-21T08:53:40.247Z,270.00
2018-06-21T08:54:40.185Z,270.00
2018-06-21T08:55:40.271Z,270.00
2018-06-21T08:56:40.241Z,270.00
2018-06-21T08:57:40.184Z,270.00
2018-06-21T08:58:40.184Z,270.00
2018-06-21T08:59:40.183Z,270.00
2018-06-21T09:00:40.186Z,247.50
2018-06-21T09:01:40.252Z,270.00
2018-06-21T09:02:40.218Z,270.00
2018-06-21T09:03:40.285Z,270.00
2018-06-21T09:04:40.261Z,270.00
2018-06-21T09:05:40.190Z,270.00
2018-06-21T09:06:40.255Z,270.00
2018-06-21T09:07:40.145Z,270.00
2018-06-21T09:08:40.243Z,292.50
2018-06-21T09:09:40.247Z,270.00
2018-06-21T09:10:40.182Z,292.50
2018-06-21T09:11:40.238Z,270.00
2018-06-21T09:12:40.219Z,292.50
2018-06-21T09:13:40.130Z,292.50
2018-06-21T09:14:40.246Z,292.50
2018-06-21T09:15:40.201Z,270.00
2018-06-21T09:16:40.224Z,270.00
2018-06-21T09:17:40.167Z,270.00
2018-06-21T09:18:40.296Z,270.00
2018-06-21T09:19:40.230Z,270.00
2018-06-21T09:20:40.167Z,270.00
2018-06-21T09:21:40.301Z,270.00
2018-06-21T09:22:40.309Z,292.50
2018-06-21T09:23:40.230Z,270.00
2018-06-21T09:24:40.285Z,270.00
2018-06-21T09:25:40.307Z,292.50
2018-06-21T09:26:40.236Z,292.50
2018-06-21T09:27:40.235Z,292.50
2018-06-21T09:28:40.272Z,270.00
2018-06-21T09:29:40.291Z,202.50
2018-06-21T09:30:40.308Z,270.00
2018-06-21T09:31:40.303Z,270.00
2018-06-21T09:32:40.240Z,270.00
2018-06-21T09:33:40.233Z,247.50
2018-06-21T09:34:40.297Z,247.50
2018-06-21T09:35:40.302Z,270.00
2018-06-21T09:36:40.177Z,270.00
2018-06-21T09:37:40.312Z,247.50
2018-06-21T09:38:40.239Z,270.00
2018-06-21T09:39:40.251Z,270.00
2018-06-21T09:40:40.298Z,225.00
2018-06-21T09:41:40.180Z,270.00
2018-06-21T09:42:40.236Z,292.50
2018-06-21T09:43:50.296Z,270.00
2018-06-21T09:44:40.242Z,270.00
2018-06-21T09:45:40.281Z,292.50
2018-06-21T09:46:40.219Z,247.50
2018-06-21T09:47:40.241Z,270.00
2018-06-21T09:48:40.283Z,270.00
2018-06-21T09:49:40.189Z,292.50
2018-06-21T09:50:40.266Z,247.50
2018-06-21T09:51:40.307Z,270.00
2018-06-21T09:52:40.247Z,270.00
2018-06-21T09:53:40.260Z,292.50
2018-06-21T09:54:40.302Z,270.00
2018-06-21T09:55:40.246Z,292.50
2018-06-21T09:56:40.284Z,270.00
2018-06-21T09:57:40.227Z,292.50
2018-06-21T09:58:40.246Z,292.50
2018-06-21T09:59:40.271Z,270.00
2018-06-21T10:00:40.195Z,247.50
2018-06-21T10:01:40.257Z,270.00
2018-06-21T10:02:40.311Z,270.00
2018-06-21T10:03:40.294Z,270.00
2018-06-21T10:04:40.260Z,292.50
2018-06-21T10:05:40.195Z,247.50
2018-06-21T10:06:40.321Z,270.00
2018-06-21T10:07:40.232Z,270.00
2018-06-21T10:08:40.231Z,270.00
2018-06-21T10:09:40.299Z,270.00
2018-06-21T10:10:40.229Z,292.50
2018-06-21T10:11:40.234Z,270.00
2018-06-21T10:12:40.237Z,270.00
2018-06-21T10:13:40.194Z,270.00
2018-06-21T10:14:40.234Z,292.50
2018-06-21T10:15:40.326Z,202.50
2018-06-21T10:16:40.302Z,270.00
2018-06-21T10:17:40.244Z,270.00
2018-06-21T10:18:40.307Z,270.00
2018-06-21T10:19:40.308Z,270.00
2018-06-21T10:20:40.240Z,225.00
2018-06-21T10:21:40.237Z,270.00
2018-06-21T10:22:40.305Z,270.00
2018-06-21T10:23:40.236Z,247.50
2018-06-21T10:24:40.308Z,270.00
2018-06-21T10:25:40.241Z,270.00
2018-06-21T10:26:40.310Z,247.50
2018-06-21T10:27:40.335Z,247.50
2018-06-21T10:28:40.345Z,270.00
2018-06-21T10:29:40.344Z,225.00
2018-06-21T10:30:40.310Z,225.00
2018-06-21T10:31:40.216Z,180.00
2018-06-21T10:32:40.344Z,202.50
2018-06-21T10:33:40.252Z,247.50
2018-06-21T10:34:40.316Z,247.50
2018-06-21T10:35:40.341Z,225.00
2018-06-21T10:36:40.285Z,202.50
2018-06-21T10:37:40.256Z,292.50
2018-06-21T10:38:40.322Z,270.00
2018-06-21T10:39:40.318Z,180.00
2018-06-21T10:40:40.253Z,180.00
2018-06-21T10:41:40.331Z,180.00
2018-06-21T10:42:40.351Z,247.50
2018-06-21T10:43:40.322Z,225.00
2018-06-21T10:44:40.250Z,202.50
2018-06-21T10:45:40.320Z,202.50
2018-06-21T10:46:40.257Z,202.50
2018-06-21T10:47:40.336Z,202.50
2018-06-21T10:48:40.261Z,202.50
2018-06-21T10:49:40.345Z,270.00
2018-06-21T10:50:40.285Z,270.00
2018-06-21T10:51:40.355Z,270.00
2018-06-21T10:52:40.298Z,202.50
2018-06-21T10:53:40.365Z,225.00
2018-06-21T10:54:40.360Z,247.50
2018-06-21T10:55:40.360Z,225.00
2018-06-21T10:56:40.283Z,247.50
2018-06-21T10:57:40.259Z,270.00
2018-06-21T10:58:40.264Z,292.50
2018-06-21T10:59:40.330Z,225.00
2018-06-21T11:00:40.337Z,247.50
2018-06-21T11:01:40.347Z,270.00
2018-06-21T11:02:40.266Z,292.50
2018-06-21T11:03:40.346Z,270.00
2018-06-21T11:04:40.270Z,292.50
2018-06-21T11:05:40.338Z,247.50
2018-06-21T11:06:40.272Z,270.00
2018-06-21T11:07:40.270Z,225.00
2018-06-21T11:08:40.388Z,180.00
2018-06-21T11:09:40.351Z,225.00
2018-06-21T11:10:40.274Z,247.50
2018-06-21T11:11:40.273Z,270.00
2018-06-21T11:12:40.342Z,247.50
2018-06-21T11:13:40.278Z,225.00
2018-06-21T11:14:40.360Z,247.50
2018-06-21T11:15:40.292Z,270.00
2018-06-21T11:16:40.362Z,225.00
2018-06-21T11:17:40.377Z,270.00
2018-06-21T11:18:40.313Z,270.00
2018-06-21T11:19:40.374Z,270.00
2018-06-21T11:20:40.250Z,270.00
2018-06-21T11:21:40.307Z,270.00
2018-06-21T11:22:40.378Z,270.00
2018-06-21T11:23:40.312Z,270.00
2018-06-21T11:24:40.376Z,270.00
2018-06-21T11:25:40.317Z,270.00
2018-06-21T11:26:40.413Z,247.50
2018-06-21T11:27:40.343Z,225.00
2018-06-21T11:28:40.276Z,247.50
2018-06-21T11:29:40.285Z,202.50
2018-06-21T11:30:40.351Z,270.00
2018-06-21T11:31:40.351Z,247.50
2018-06-21T11:32:40.354Z,225.00
2018-06-21T11:33:40.293Z,247.50
2018-06-21T11:34:40.285Z,270.00
2018-06-21T11:35:40.352Z,247.50
2018-06-21T11:36:40.292Z,247.50
2018-06-21T11:37:40.354Z,270.00
2018-06-21T11:38:40.298Z,270.00
2018-06-21T11:39:40.357Z,270.00
2018-06-21T11:40:40.363Z,270.00
2018-06-21T11:41:40.359Z,292.50
2018-06-21T11:42:40.294Z,292.50
2018-06-21T11:43:40.295Z,270.00
2018-06-21T11:44:40.325Z,270.00
2018-06-21T11:45:40.294Z,270.00
2018-06-21T11:46:40.423Z,270.00
2018-06-21T11:47:40.361Z,270.00
2018-06-21T11:48:40.294Z,247.50
2018-06-21T11:49:40.367Z,270.00
2018-06-21T11:50:40.297Z,270.00
2018-06-21T11:51:40.303Z,270.00
2018-06-21T11:52:40.366Z,270.00
2018-06-21T11:53:40.298Z,247.50
2018-06-21T11:54:40.365Z,270.00
2018-06-21T11:55:40.327Z,270.00
2018-06-21T11:56:40.300Z,292.50
2018-06-21T11:57:40.339Z,270.00
2018-06-21T11:58:40.346Z,270.00
2018-06-21T11:59:40.327Z,270.00
2018-06-21T12:00:40.315Z,225.00
2018-06-21T12:01:40.431Z,225.00
2018-06-21T12:02:40.398Z,225.00
2018-06-21T12:03:40.336Z,225.00
2018-06-21T12:04:40.379Z,247.50
2018-06-21T12:05:40.416Z,247.50
2018-06-21T12:06:40.417Z,270.00
2018-06-21T12:07:40.362Z,270.00
2018-06-21T12:08:40.305Z,270.00
2018-06-21T12:09:40.242Z,247.50
2018-06-21T12:10:40.312Z,247.50
2018-06-21T12:11:40.301Z,247.50
2018-06-21T12:12:40.270Z,247.50
2018-06-21T12:13:40.312Z,270.00
2018-06-21T12:14:40.251Z,292.50
2018-06-21T12:15:40.254Z,270.00
2018-06-21T12:16:40.280Z,292.50
2018-06-21T12:17:40.413Z,270.00
2018-06-21T12:18:40.430Z,247.50
2018-06-21T12:19:40.385Z,292.50
2018-06-21T12:20:40.360Z,247.50
2018-06-21T12:21:40.364Z,225.00
2018-06-21T12:22:40.289Z,270.00
2018-06-21T12:23:40.364Z,270.00
2018-06-21T12:24:40.362Z,270.00
2018-06-21T12:25:40.362Z,247.50
2018-06-21T12:26:40.392Z,270.00
2018-06-21T12:27:40.326Z,270.00
2018-06-21T12:28:40.316Z,247.50
2018-06-21T12:29:40.296Z,270.00
2018-06-21T12:30:40.368Z,270.00
2018-06-21T12:31:40.352Z,270.00
2018-06-21T12:32:40.360Z,270.00
2018-06-21T12:33:40.303Z,247.50
2018-06-21T12:34:40.417Z,270.00
2018-06-21T12:35:40.352Z,270.00
2018-06-21T12:36:40.436Z,270.00
2018-06-21T12:37:40.343Z,270.00
2018-06-21T12:38:40.304Z,270.00
2018-06-21T12:39:40.300Z,247.50
2018-06-21T12:40:40.343Z,247.50
2018-06-21T12:41:40.300Z,270.00
2018-06-21T12:42:40.345Z,292.50
2018-06-21T12:43:40.305Z,270.00
2018-06-21T12:44:40.347Z,270.00
2018-06-21T12:45:40.344Z,270.00
2018-06-21T12:46:40.361Z,292.50